createdAt,value
2023-01-21T00:00:16.919Z,14.10
2023-01-21T00:02:43.901Z,14.32
2023-01-21T00:05:10.756Z,14.77
2023-01-21T00:07:37.576Z,15.35
2023-01-21T00:10:04.680Z,15.25
2023-01-21T00:12:31.444Z,15.27
2023-01-21T00:14:58.246Z,15.90
2023-01-21T00:17:24.982Z,17.42
2023-01-21T00:19:51.773Z,16.20
2023-01-21T00:22:18.739Z,17.85
2023-01-21T00:24:50.165Z,17.02
2023-01-21T00:27:16.949Z,16.15
2023-01-21T00:29:43.791Z,15.68
2023-01-21T00:32:10.543Z,15.27
2023-01-21T00:34:37.551Z,14.75
2023-01-21T00:37:07.941Z,15.18
2023-01-21T00:39:34.851Z,15.00
2023-01-21T00:42:04.436Z,20.38
2023-01-21T00:44:31.221Z,22.10
2023-01-21T00:46:58.016Z,23.20
2023-01-21T00:49:24.837Z,18.90
2023-01-21T00:51:51.589Z,17.48
2023-01-21T00:54:18.452Z,17.63
2023-01-21T00:56:45.235Z,16.83
2023-01-21T00:59:12.233Z,15.38
2023-01-21T01:01:39.440Z,14.68
2023-01-21T01:04:06.693Z,15.98
2023-01-21T01:06:36.372Z,14.38
2023-01-21T01:09:03.586Z,15.38
2023-01-21T01:11:31.667Z,14.27
2023-01-21T01:14:02.230Z,15.00
2023-01-21T01:16:29.127Z,14.70
2023-01-21T01:18:56.499Z,14.55
2023-01-21T01:21:23.635Z,14.85
2023-01-21T01:24:00.827Z,14.15
2023-01-21T01:26:27.788Z,14.02
2023-01-21T01:28:54.770Z,15.25
2023-01-21T01:31:24.645Z,14.43
2023-01-21T01:33:53.992Z,15.63
2023-01-21T01:36:25.598Z,15.52
2023-01-21T01:38:53.905Z,13.90
2023-01-21T01:41:23.881Z,14.85
2023-01-21T01:43:55.192Z,14.15
2023-01-21T01:46:23.037Z,16.80
2023-01-21T01:49:04.376Z,15.68
2023-01-21T01:51:46.290Z,15.63
2023-01-21T01:54:18.265Z,15.18
2023-01-21T01:56:48.466Z,15.48
2023-01-21T01:59:15.332Z,15.32
2023-01-21T02:01:42.289Z,16.45
2023-01-21T02:04:14.558Z,15.73
2023-01-21T02:09:11.975Z,15.13
2023-01-21T02:11:39.125Z,17.42
2023-01-21T02:14:06.335Z,16.73
2023-01-21T02:17:07.452Z,16.23
2023-01-21T02:19:47.644Z,14.98
2023-01-21T02:22:52.436Z,15.27
2023-01-21T02:25:35.359Z,14.52
2023-01-21T02:28:32.505Z,16.30
2023-01-21T02:31:27.658Z,15.38
2023-01-21T02:34:06.450Z,14.75
2023-01-21T02:36:48.219Z,15.82
2023-01-21T02:39:20.994Z,14.70
2023-01-21T02:42:04.177Z,15.15
2023-01-21T02:44:42.120Z,15.93
2023-01-21T02:47:08.824Z,14.65
2023-01-21T02:49:58.464Z,15.43
2023-01-21T02:52:26.093Z,16.15
2023-01-21T02:54:58.258Z,16.83
2023-01-21T02:59:55.009Z,16.33
2023-01-21T03:02:47.401Z,18.15
2023-01-21T03:05:44.348Z,16.05
2023-01-21T03:08:39.759Z,16.33
2023-01-21T03:11:17.606Z,16.88
2023-01-21T03:14:11.344Z,16.60
2023-01-21T03:16:58.600Z,14.95
2023-01-21T03:19:46.814Z,16.15
2023-01-21T03:22:19.132Z,17.52
2023-01-21T03:24:50.290Z,16.73
2023-01-21T03:27:19.903Z,16.45
2023-01-21T03:29:49.917Z,17.10
2023-01-21T03:32:18.493Z,17.13
2023-01-21T03:34:50.911Z,16.42
2023-01-21T03:37:30.444Z,16.77
2023-01-21T03:40:09.897Z,16.65
2023-01-21T03:42:37.428Z,16.73
2023-01-21T03:45:04.852Z,16.58
2023-01-21T03:47:39.138Z,15.98
2023-01-21T03:50:08.953Z,17.70
2023-01-21T03:52:40.144Z,18.80
2023-01-21T03:55:07.963Z,17.50
2023-01-21T03:57:34.855Z,16.90
2023-01-21T04:00:01.752Z,17.10
2023-01-21T04:02:31.453Z,17.50
2023-01-21T04:04:58.300Z,16.88
2023-01-21T04:07:25.069Z,19.00
2023-01-21T04:09:51.851Z,18.58
2023-01-21T04:12:19.966Z,17.65
2023-01-21T04:14:46.768Z,17.50
2023-01-21T04:17:13.543Z,17.50
2023-01-21T04:19:40.334Z,17.23
2023-01-21T04:22:07.179Z,18.63
2023-01-21T04:24:34.805Z,17.50
2023-01-21T04:27:01.650Z,18.85
2023-01-21T04:29:28.459Z,19.80
2023-01-21T04:31:55.222Z,19.10
2023-01-21T04:34:22.175Z,17.75
2023-01-21T04:36:48.882Z,17.08
2023-01-21T04:39:15.755Z,19.83
2023-01-21T04:41:42.583Z,20.10
2023-01-21T04:44:09.380Z,18.85
2023-01-21T04:46:36.153Z,19.55
2023-01-21T04:49:02.943Z,19.55
2023-01-21T04:51:29.746Z,18.80
2023-01-21T04:53:56.483Z,20.88
2023-01-21T04:56:23.224Z,21.05
2023-01-21T04:58:50.655Z,19.52
2023-01-21T05:01:17.476Z,19.80
2023-01-21T05:03:44.242Z,19.55
2023-01-21T05:06:11.013Z,22.33
2023-01-21T05:08:37.769Z,22.45
2023-01-21T05:11:04.563Z,19.88
2023-01-21T05:13:31.287Z,20.92
2023-01-21T05:16:04.114Z,22.08
2023-01-21T05:18:30.934Z,20.52
2023-01-21T05:20:57.736Z,21.55
2023-01-21T05:23:24.468Z,21.50
2023-01-21T05:25:51.213Z,20.92
2023-01-21T05:28:17.957Z,20.10
2023-01-21T05:30:44.864Z,22.20
2023-01-21T05:33:11.595Z,22.60
2023-01-21T05:35:38.400Z,22.00
2023-01-21T05:38:05.346Z,21.65
2023-01-21T05:40:32.163Z,22.27
2023-01-21T05:42:58.904Z,20.98
2023-01-21T05:45:25.843Z,22.42
2023-01-21T05:47:52.581Z,21.50
2023-01-21T05:50:19.570Z,23.80
2023-01-21T05:52:46.374Z,24.10
2023-01-21T05:55:13.199Z,21.85
2023-01-21T05:57:39.978Z,22.25
2023-01-21T06:00:07.418Z,23.27
2023-01-21T06:02:34.193Z,22.20
2023-01-21T06:05:00.978Z,23.02
2023-01-21T06:07:27.738Z,24.98
2023-01-21T06:09:54.500Z,26.15
2023-01-21T06:12:22.718Z,24.75
2023-01-21T06:14:50.638Z,26.83
2023-01-21T06:17:17.390Z,23.00
2023-01-21T06:19:44.133Z,23.45
2023-01-21T06:22:14.985Z,24.00
2023-01-21T06:24:41.771Z,23.25
2023-01-21T06:27:08.536Z,24.73
2023-01-21T06:29:35.340Z,27.20
2023-01-21T06:32:02.225Z,23.17
2023-01-21T06:34:29.050Z,24.33
2023-01-21T06:36:55.813Z,25.77
2023-01-21T06:39:22.582Z,23.40
2023-01-21T06:41:49.343Z,25.35
2023-01-21T06:44:16.085Z,22.75
2023-01-21T06:46:45.913Z,23.58
2023-01-21T06:49:18.980Z,22.23
2023-01-21T06:51:46.576Z,23.50
2023-01-21T06:54:13.346Z,22.98
2023-01-21T06:56:43.601Z,22.65
2023-01-21T06:59:10.473Z,22.92
2023-01-21T07:01:37.212Z,23.92
2023-01-21T07:04:04.051Z,19.67
2023-01-21T07:06:30.798Z,22.00
2023-01-21T07:08:57.570Z,21.38
2023-01-21T07:11:24.399Z,21.10
2023-01-21T07:13:51.141Z,21.95
2023-01-21T07:16:17.936Z,20.25
2023-01-21T07:18:44.636Z,20.17
2023-01-21T07:21:11.381Z,20.20
2023-01-21T07:23:38.246Z,20.40
2023-01-21T07:26:05.549Z,21.58
2023-01-21T07:28:32.406Z,20.38
2023-01-21T07:31:00.293Z,20.95
2023-01-21T07:33:27.511Z,19.88
2023-01-21T07:35:54.993Z,21.60
2023-01-21T07:38:22.157Z,22.70
2023-01-21T07:40:49.572Z,22.08
2023-01-21T07:43:17.058Z,22.63
2023-01-21T07:45:44.055Z,24.15
2023-01-21T07:48:11.216Z,25.05
2023-01-21T07:50:38.099Z,23.58
2023-01-21T07:53:04.966Z,22.08
2023-01-21T07:55:32.160Z,19.77
2023-01-21T07:57:59.598Z,20.48
2023-01-21T08:00:27.287Z,20.42
2023-01-21T08:02:55.191Z,20.42
2023-01-21T08:05:25.749Z,19.38
2023-01-21T08:07:52.900Z,22.08
2023-01-21T08:10:22.177Z,21.60
2023-01-21T08:12:49.068Z,19.38
2023-01-21T08:15:16.262Z,18.33
2023-01-21T08:17:44.118Z,17.85
2023-01-21T08:20:12.247Z,18.23
2023-01-21T08:22:39.124Z,17.83
2023-01-21T08:25:06.680Z,20.33
2023-01-21T08:27:33.604Z,19.05
2023-01-21T08:30:00.361Z,18.75
2023-01-21T08:32:30.633Z,18.48
2023-01-21T08:34:57.479Z,18.50
2023-01-21T08:37:24.165Z,18.40
2023-01-21T08:39:50.964Z,18.15
2023-01-21T08:42:17.681Z,18.67
2023-01-21T08:44:46.101Z,19.73
2023-01-21T08:47:12.867Z,18.40
2023-01-21T08:49:42.297Z,18.23
2023-01-21T08:52:10.218Z,18.23
2023-01-21T08:54:37.033Z,17.27
2023-01-21T08:57:03.967Z,18.85
2023-01-21T08:59:30.674Z,17.30
2023-01-21T09:01:57.567Z,18.67
2023-01-21T09:04:24.476Z,17.95
2023-01-21T09:06:51.208Z,18.50
2023-01-21T09:09:18.096Z,16.13
2023-01-21T09:11:44.892Z,17.73
2023-01-21T09:14:11.918Z,18.67
2023-01-21T09:16:39.203Z,16.98
2023-01-21T09:19:06.088Z,16.42
2023-01-21T09:21:35.894Z,17.50
2023-01-21T09:24:03.129Z,16.35
2023-01-21T09:26:29.920Z,18.08
2023-01-21T09:28:59.548Z,16.13
2023-01-21T09:31:28.125Z,17.10
2023-01-21T09:33:58.043Z,17.33
2023-01-21T09:36:28.018Z,17.02
2023-01-21T09:38:54.890Z,15.57
2023-01-21T09:41:38.248Z,16.08
2023-01-21T09:44:24.629Z,16.17
2023-01-21T09:47:18.849Z,16.55
2023-01-21T09:49:50.975Z,15.70
2023-01-21T09:52:39.236Z,15.45
2023-01-21T09:55:18.889Z,16.15
2023-01-21T09:58:09.654Z,16.38
2023-01-21T10:00:55.165Z,17.15
2023-01-21T10:03:37.207Z,17.92
2023-01-21T10:06:09.899Z,17.40
2023-01-21T10:09:11.486Z,17.63
2023-01-21T10:11:38.202Z,16.45
2023-01-21T10:14:41.602Z,16.83
2023-01-21T10:17:33.201Z,17.17
2023-01-21T10:20:30.208Z,15.00
2023-01-21T10:23:11.166Z,15.50
2023-01-21T10:25:39.670Z,15.55
2023-01-21T10:28:32.716Z,16.40
2023-01-21T10:31:28.400Z,15.02
2023-01-21T10:33:55.988Z,14.77
2023-01-21T10:36:39.098Z,16.30
2023-01-21T10:39:41.723Z,13.63
2023-01-21T10:42:22.143Z,14.88
2023-01-21T10:45:08.211Z,14.30
2023-01-21T10:47:52.472Z,15.90
2023-01-21T10:50:39.772Z,15.43
2023-01-21T10:53:12.733Z,15.75
2023-01-21T10:56:00.724Z,16.08
2023-01-21T10:58:32.876Z,17.55
2023-01-21T11:01:04.631Z,15.43
2023-01-21T11:03:44.577Z,13.10
2023-01-21T11:06:15.130Z,14.45
2023-01-21T11:08:45.141Z,16.02
2023-01-21T11:11:13.174Z,13.25
2023-01-21T11:13:41.304Z,15.85
2023-01-21T11:16:08.787Z,14.35
2023-01-21T11:18:36.766Z,15.07
2023-01-21T11:21:19.709Z,14.27
2023-01-21T11:24:00.805Z,13.35
2023-01-21T11:26:36.205Z,13.15
2023-01-21T11:29:17.906Z,15.20
2023-01-21T11:31:48.679Z,13.90
2023-01-21T11:34:23.209Z,14.05
2023-01-21T11:37:04.846Z,15.65
2023-01-21T11:39:33.893Z,13.52
2023-01-21T11:42:16.368Z,13.75
2023-01-21T11:44:57.526Z,12.63
2023-01-21T11:47:38.745Z,13.70
2023-01-21T11:50:23.572Z,14.07
2023-01-21T11:53:13.683Z,14.20
2023-01-21T11:55:46.067Z,14.57
2023-01-21T11:58:30.539Z,14.57
2023-01-21T12:01:00.426Z,13.00
2023-01-21T12:03:53.224Z,13.43
2023-01-21T12:06:30.678Z,12.98
2023-01-21T12:09:03.201Z,12.70
2023-01-21T12:11:31.780Z,13.27
2023-01-21T12:14:22.886Z,12.77
2023-01-21T12:17:21.969Z,13.80
2023-01-21T12:20:11.647Z,12.23
2023-01-21T12:22:49.874Z,13.27
2023-01-21T12:25:38.210Z,11.43
2023-01-21T12:28:14.106Z,14.40
2023-01-21T12:30:59.836Z,13.75
2023-01-21T12:33:32.712Z,12.70
2023-01-21T12:36:13.032Z,12.25
2023-01-21T12:39:05.314Z,13.15
2023-01-21T12:41:33.025Z,12.27
2023-01-21T12:44:24.986Z,13.80
2023-01-21T12:46:56.421Z,15.73
2023-01-21T12:49:32.719Z,14.00
2023-01-21T12:52:04.998Z,12.68
2023-01-21T12:54:58.073Z,12.05
2023-01-21T12:57:49.834Z,12.32
2023-01-21T13:00:22.614Z,14.82
2023-01-21T13:03:26.700Z,13.23
2023-01-21T13:06:15.044Z,11.98
2023-01-21T13:08:44.542Z,11.93
2023-01-21T13:11:33.159Z,13.15
2023-01-21T13:14:09.035Z,12.60
2023-01-21T13:16:43.627Z,13.25
2023-01-21T13:19:13.858Z,11.77
2023-01-21T13:22:15.479Z,11.90
2023-01-21T13:25:01.309Z,11.55
2023-01-21T13:27:45.845Z,12.60
2023-01-21T13:30:39.718Z,13.35
2023-01-21T13:33:34.672Z,13.05
2023-01-21T13:36:34.433Z,12.43
2023-01-21T13:39:22.126Z,11.80
2023-01-21T13:42:25.154Z,12.18
2023-01-21T13:45:07.559Z,9.93
2023-01-21T13:50:23.625Z,10.35
2023-01-21T13:53:25.496Z,10.60
2023-01-21T13:56:13.761Z,10.90
2023-01-21T13:58:50.652Z,9.63
2023-01-21T14:01:22.987Z,11.88
2023-01-21T14:04:11.736Z,11.02
2023-01-21T14:07:27.078Z,11.70
2023-01-21T14:09:58.839Z,10.35
2023-01-21T14:12:49.126Z,11.55
2023-01-21T14:15:30.700Z,10.52
2023-01-21T14:18:42.258Z,15.32
2023-01-21T14:21:33.893Z,9.73
2023-01-21T14:24:25.471Z,10.13
2023-01-21T14:27:07.262Z,21.13
2023-01-21T14:29:40.859Z,19.77
2023-01-21T14:32:19.369Z,34.28
2023-01-21T14:35:00.367Z,18.92
2023-01-21T14:37:37.687Z,28.05
2023-01-21T14:40:26.795Z,17.48
2023-01-21T14:42:54.730Z,12.07
2023-01-21T14:45:25.851Z,11.77
2023-01-21T14:47:57.796Z,18.85
2023-01-21T14:50:51.063Z,15.82
2023-01-21T14:53:26.117Z,20.08
2023-01-21T14:56:20.790Z,22.58
2023-01-21T14:58:53.747Z,30.30
2023-01-21T15:01:45.977Z,32.53
2023-01-21T15:04:20.381Z,11.45
2023-01-21T15:06:50.354Z,11.35
2023-01-21T15:09:25.518Z,11.50
2023-01-21T15:11:58.663Z,10.20
2023-01-21T15:14:30.580Z,11.05
2023-01-21T15:16:57.335Z,10.35
2023-01-21T15:19:28.731Z,10.52
2023-01-21T15:22:17.487Z,10.68
2023-01-21T15:25:18.342Z,9.40
2023-01-21T15:28:23.015Z,9.85
2023-01-21T15:31:04.949Z,10.10
2023-01-21T15:33:37.829Z,8.43
2023-01-21T15:36:16.226Z,7.78
2023-01-21T15:38:43.409Z,8.55
2023-01-21T15:41:41.921Z,9.52
2023-01-21T15:44:28.663Z,9.23
2023-01-21T15:47:17.417Z,8.27
2023-01-21T15:50:12.501Z,10.13
2023-01-21T15:53:16.261Z,9.52
2023-01-21T15:56:18.183Z,8.23
2023-01-21T15:58:57.726Z,8.27
2023-01-21T16:01:29.484Z,8.40
2023-01-21T16:04:20.664Z,8.27
2023-01-21T16:07:20.946Z,6.90
2023-01-21T16:10:08.004Z,7.47
2023-01-21T16:12:54.386Z,8.30
2023-01-21T16:15:53.835Z,8.98
2023-01-21T16:18:38.467Z,11.45
2023-01-21T16:21:05.280Z,9.73
2023-01-21T16:23:38.414Z,10.75
2023-01-21T16:26:05.287Z,10.55
2023-01-21T16:28:43.732Z,9.75
2023-01-21T16:31:11.001Z,9.88
2023-01-21T16:33:37.841Z,11.55
2023-01-21T16:36:09.430Z,11.10
2023-01-21T16:38:37.782Z,12.30
2023-01-21T16:41:07.638Z,11.48
2023-01-21T16:43:44.778Z,12.00
2023-01-21T16:46:39.126Z,10.45
2023-01-21T16:49:12.774Z,9.38
2023-01-21T16:51:43.826Z,9.65
2023-01-21T16:54:19.551Z,10.73
2023-01-21T16:57:22.751Z,10.98
2023-01-21T16:59:49.624Z,10.18
2023-01-21T17:02:31.669Z,11.27
2023-01-21T17:05:07.027Z,12.63
2023-01-21T17:07:42.747Z,11.88
2023-01-21T17:10:20.606Z,11.07
2023-01-21T17:12:54.317Z,11.57
2023-01-21T17:15:41.163Z,10.13
2023-01-21T17:18:22.893Z,11.70
2023-01-21T17:20:52.735Z,10.30
2023-01-21T17:23:25.823Z,11.80
2023-01-21T17:26:03.577Z,10.45
2023-01-21T17:29:03.273Z,10.65
2023-01-21T17:31:31.592Z,10.77
2023-01-21T17:34:20.743Z,10.98
2023-01-21T17:36:50.606Z,12.25
2023-01-21T17:39:49.186Z,10.23
2023-01-21T17:42:25.031Z,10.93
2023-01-21T17:44:55.559Z,12.25
2023-01-21T17:47:25.286Z,12.60
2023-01-21T17:50:23.850Z,11.07
2023-01-21T17:53:01.646Z,10.65
2023-01-21T17:55:32.685Z,10.48
2023-01-21T17:58:04.602Z,9.60
2023-01-21T18:00:44.791Z,10.98
2023-01-21T18:03:12.422Z,9.32
2023-01-21T18:05:40.938Z,10.00
2023-01-21T18:08:15.895Z,9.75
2023-01-21T18:10:43.792Z,11.25
2023-01-21T18:13:14.589Z,12.02
2023-01-21T18:15:43.121Z,10.50
2023-01-21T18:18:24.185Z,11.88
2023-01-21T18:20:51.050Z,10.13
2023-01-21T18:23:18.291Z,9.95
2023-01-21T18:25:50.892Z,9.27
2023-01-21T18:28:23.491Z,10.48
2023-01-21T18:30:51.276Z,11.82
2023-01-21T18:33:18.925Z,10.85
2023-01-21T18:35:48.141Z,11.65
2023-01-21T18:38:19.158Z,10.95
2023-01-21T18:40:46.328Z,10.07
2023-01-21T18:43:13.106Z,12.32
2023-01-21T18:45:40.347Z,12.18
2023-01-21T18:48:12.195Z,11.77
2023-01-21T18:50:39.119Z,11.93
2023-01-21T18:53:06.151Z,13.25
2023-01-21T18:55:33.002Z,12.70
2023-01-21T18:57:59.876Z,10.55
2023-01-21T19:00:32.232Z,11.23
2023-01-21T19:03:01.186Z,12.23
2023-01-21T19:05:33.979Z,10.85
2023-01-21T19:08:01.789Z,13.50
2023-01-21T19:10:28.845Z,13.82
2023-01-21T19:12:55.566Z,11.75
2023-01-21T19:15:24.809Z,13.18
2023-01-21T19:17:52.325Z,12.27
2023-01-21T19:20:19.439Z,11.45
2023-01-21T19:22:47.110Z,11.38
2023-01-21T19:25:14.520Z,11.32
2023-01-21T19:27:44.204Z,12.10
2023-01-21T19:30:32.389Z,13.07
2023-01-21T19:33:03.360Z,11.73
2023-01-21T19:35:49.168Z,12.23
2023-01-21T19:38:19.063Z,11.65
2023-01-21T19:40:46.765Z,12.65
2023-01-21T19:43:14.940Z,15.75
2023-01-21T19:45:42.590Z,13.15
2023-01-21T19:48:21.034Z,13.23
2023-01-21T19:50:48.055Z,13.43
2023-01-21T19:53:17.636Z,14.02
2023-01-21T19:55:46.174Z,11.88
2023-01-21T19:58:19.726Z,12.35
2023-01-21T20:00:49.351Z,13.32
2023-01-21T20:03:18.424Z,12.32
2023-01-21T20:05:46.198Z,11.85
2023-01-21T20:08:24.053Z,11.27
2023-01-21T20:10:51.027Z,12.82
2023-01-21T20:13:18.174Z,11.68
2023-01-21T20:15:46.683Z,13.70
2023-01-21T20:18:24.414Z,12.43
2023-01-21T20:20:52.379Z,12.05
2023-01-21T20:23:20.449Z,12.02
2023-01-21T20:25:51.090Z,11.23
2023-01-21T20:28:38.553Z,12.48
2023-01-21T20:31:08.044Z,11.52
2023-01-21T20:33:36.272Z,11.98
2023-01-21T20:36:13.895Z,13.45
2023-01-21T20:38:42.212Z,11.65
2023-01-21T20:41:10.145Z,11.18
2023-01-21T20:43:36.923Z,11.82
2023-01-21T20:46:07.082Z,11.80
2023-01-21T20:48:42.892Z,11.75
2023-01-21T20:51:10.322Z,12.52
2023-01-21T20:53:38.194Z,12.05
2023-01-21T20:56:20.826Z,13.38
2023-01-21T20:58:48.060Z,12.65
2023-01-21T21:01:17.205Z,12.38
2023-01-21T21:03:44.123Z,16.98
2023-01-21T21:06:18.176Z,14.25
2023-01-21T21:08:44.972Z,13.07
2023-01-21T21:11:13.624Z,15.40
2023-01-21T21:16:24.790Z,14.23
2023-01-21T21:18:51.884Z,13.93
2023-01-21T21:21:21.763Z,11.82
2023-01-21T21:23:51.554Z,12.88
2023-01-21T21:26:23.046Z,13.95
2023-01-21T21:28:50.688Z,12.63
2023-01-21T21:31:17.974Z,14.20
2023-01-21T21:33:45.197Z,13.48
2023-01-21T21:36:20.547Z,11.77
2023-01-21T21:38:48.979Z,10.93
2023-01-21T21:41:39.619Z,12.13
2023-01-21T21:44:07.574Z,13.25
2023-01-21T21:46:53.387Z,13.45
2023-01-21T21:49:20.300Z,12.93
2023-01-21T21:51:47.115Z,13.05
2023-01-21T21:54:15.756Z,13.02
2023-01-21T21:56:43.345Z,11.80
2023-01-21T21:59:12.226Z,14.00
2023-01-21T22:01:40.788Z,13.55
2023-01-21T22:04:07.835Z,16.40
2023-01-21T22:06:34.619Z,24.05
2023-01-21T22:09:01.957Z,25.90
2023-01-21T22:11:29.276Z,21.52
2023-01-21T22:13:56.795Z,19.70
2023-01-21T22:16:28.697Z,13.23
2023-01-21T22:18:57.668Z,13.60
2023-01-21T22:21:32.933Z,13.68
2023-01-21T22:24:01.203Z,12.93
2023-01-21T22:26:28.563Z,13.35
2023-01-21T22:28:55.968Z,12.82
2023-01-21T22:31:25.315Z,13.32
2023-01-21T22:33:52.623Z,12.35
2023-01-21T22:36:21.694Z,12.70
2023-01-21T22:38:49.350Z,12.85
2023-01-21T22:41:18.188Z,12.50
2023-01-21T22:43:48.114Z,13.70
2023-01-21T22:46:17.846Z,12.45
2023-01-21T22:48:46.152Z,12.88
2023-01-21T22:51:15.664Z,12.88
2023-01-21T22:53:45.326Z,12.07
2023-01-21T22:56:14.132Z,11.20
2023-01-21T22:58:41.068Z,12.55
2023-01-21T23:01:08.934Z,14.07
2023-01-21T23:03:37.421Z,13.43
2023-01-21T23:06:06.446Z,11.00
2023-01-21T23:08:33.886Z,11.25
2023-01-21T23:11:05.820Z,14.70
2023-01-21T23:13:33.519Z,12.95
2023-01-21T23:16:00.545Z,12.55
2023-01-21T23:18:29.063Z,12.07
2023-01-21T23:20:56.750Z,13.07
2023-01-21T23:23:24.839Z,11.85
2023-01-21T23:25:51.955Z,13.40
2023-01-21T23:28:18.743Z,12.60
2023-01-21T23:30:45.663Z,11.98
2023-01-21T23:33:12.931Z,12.48
2023-01-21T23:35:39.679Z,12.60
2023-01-21T23:38:06.362Z,13.30
2023-01-21T23:40:33.213Z,12.18
2023-01-21T23:43:00.045Z,12.70
2023-01-21T23:45:26.890Z,12.95
2023-01-21T23:47:54.812Z,12.25
2023-01-21T23:50:21.992Z,12.20
2023-01-21T23:52:48.836Z,12.48
2023-01-21T23:55:15.639Z,13.30
2023-01-21T23:57:42.424Z,13.45
